sensor_id;sensor_type;location;lat;lon;timestamp;temperature;humidity
8914;DHT22;4492;48.736;9.092;2022-07-18T00:02:16;15.10;68.10
8914;DHT22;4492;48.736;9.092;2022-07-18T00:04:42;15.00;69.00
8914;DHT22;4492;48.736;9.092;2022-07-18T00:07:07;14.90;70.10
8914;DHT22;4492;48.736;9.092;2022-07-18T00:09:35;14.80;70.80
8914;DHT22;4492;48.736;9.092;2022-07-18T00:12:04;14.80;71.40
8914;DHT22;4492;48.736;9.092;2022-07-18T00:14:30;14.80;72.20
8914;DHT22;4492;48.736;9.092;2022-07-18T00:16:56;14.70;72.30
8914;DHT22;4492;48.736;9.092;2022-07-18T00:19:21;14.60;72.10
8914;DHT22;4492;48.736;9.092;2022-07-18T00:21:47;14.60;72.00
8914;DHT22;4492;48.736;9.092;2022-07-18T00:24:13;14.60;72.10
8914;DHT22;4492;48.736;9.092;2022-07-18T00:26:38;14.60;72.30
8914;DHT22;4492;48.736;9.092;2022-07-18T00:29:04;14.60;72.40
8914;DHT22;4492;48.736;9.092;2022-07-18T00:31:30;14.50;72.80
8914;DHT22;4492;48.736;9.092;2022-07-18T00:33:56;14.50;73.80
8914;DHT22;4492;48.736;9.092;2022-07-18T00:36:22;14.50;77.60
8914;DHT22;4492;48.736;9.092;2022-07-18T00:38:48;14.40;76.30
8914;DHT22;4492;48.736;9.092;2022-07-18T00:41:15;14.30;76.00
8914;DHT22;4492;48.736;9.092;2022-07-18T00:43:41;14.20;77.30
8914;DHT22;4492;48.736;9.092;2022-07-18T00:46:06;14.20;77.30
8914;DHT22;4492;48.736;9.092;2022-07-18T00:48:32;14.10;77.50
8914;DHT22;4492;48.736;9.092;2022-07-18T00:50:58;14.10;77.90
8914;DHT22;4492;48.736;9.092;2022-07-18T00:53:23;14.00;78.40
8914;DHT22;4492;48.736;9.092;2022-07-18T00:55:49;14.00;78.90
8914;DHT22;4492;48.736;9.092;2022-07-18T00:58:16;13.90;79.70
8914;DHT22;4492;48.736;9.092;2022-07-18T01:00:41;13.90;79.70
8914;DHT22;4492;48.736;9.092;2022-07-18T01:03:26;13.90;81.00
8914;DHT22;4492;48.736;9.092;2022-07-18T01:05:51;13.80;82.70
8914;DHT22;4492;48.736;9.092;2022-07-18T01:08:17;13.80;83.60
8914;DHT22;4492;48.736;9.092;2022-07-18T01:10:42;13.70;85.20
8914;DHT22;4492;48.736;9.092;2022-07-18T01:13:08;13.70;85.70
8914;DHT22;4492;48.736;9.092;2022-07-18T01:15:34;13.60;86.20
8914;DHT22;4492;48.736;9.092;2022-07-18T01:18:00;13.60;87.20
8914;DHT22;4492;48.736;9.092;2022-07-18T01:20:27;13.50;87.00
8914;DHT22;4492;48.736;9.092;2022-07-18T01:22:53;13.50;87.50
8914;DHT22;4492;48.736;9.092;2022-07-18T01:25:18;13.40;87.70
8914;DHT22;4492;48.736;9.092;2022-07-18T01:27:44;13.40;88.10
8914;DHT22;4492;48.736;9.092;2022-07-18T01:30:10;13.40;88.70
8914;DHT22;4492;48.736;9.092;2022-07-18T01:32:35;13.40;89.00
8914;DHT22;4492;48.736;9.092;2022-07-18T01:35:01;13.30;89.00
8914;DHT22;4492;48.736;9.092;2022-07-18T01:37:27;13.40;89.20
8914;DHT22;4492;48.736;9.092;2022-07-18T01:39:52;13.40;89.40
8914;DHT22;4492;48.736;9.092;2022-07-18T01:42:18;13.40;89.60
8914;DHT22;4492;48.736;9.092;2022-07-18T01:44:45;13.30;89.90
8914;DHT22;4492;48.736;9.092;2022-07-18T01:47:11;13.30;90.10
8914;DHT22;4492;48.736;9.092;2022-07-18T01:49:37;13.30;90.40
8914;DHT22;4492;48.736;9.092;2022-07-18T01:52:03;13.30;90.60
8914;DHT22;4492;48.736;9.092;2022-07-18T01:54:31;13.30;91.10
8914;DHT22;4492;48.736;9.092;2022-07-18T01:56:58;13.20;90.80
8914;DHT22;4492;48.736;9.092;2022-07-18T01:59:24;13.20;90.90
8914;DHT22;4492;48.736;9.092;2022-07-18T02:01:50;13.20;90.90
8914;DHT22;4492;48.736;9.092;2022-07-18T02:04:16;13.20;90.90
8914;DHT22;4492;48.736;9.092;2022-07-18T02:06:41;13.20;91.00
8914;DHT22;4492;48.736;9.092;2022-07-18T02:09:08;13.10;91.40
8914;DHT22;4492;48.736;9.092;2022-07-18T02:11:34;13.10;91.60
8914;DHT22;4492;48.736;9.092;2022-07-18T02:14:01;13.00;91.80
8914;DHT22;4492;48.736;9.092;2022-07-18T02:16:27;13.00;91.90
8914;DHT22;4492;48.736;9.092;2022-07-18T02:18:54;12.90;92.20
8914;DHT22;4492;48.736;9.092;2022-07-18T02:21:20;12.90;93.30
8914;DHT22;4492;48.736;9.092;2022-07-18T02:23:45;12.90;93.90
8914;DHT22;4492;48.736;9.092;2022-07-18T02:26:11;12.90;93.90
8914;DHT22;4492;48.736;9.092;2022-07-18T02:28:37;12.90;93.90
8914;DHT22;4492;48.736;9.092;2022-07-18T02:31:04;12.80;93.90
8914;DHT22;4492;48.736;9.092;2022-07-18T02:33:30;12.80;94.00
8914;DHT22;4492;48.736;9.092;2022-07-18T02:35:56;12.80;94.30
8914;DHT22;4492;48.736;9.092;2022-07-18T02:38:21;12.70;94.60
8914;DHT22;4492;48.736;9.092;2022-07-18T02:40:47;12.60;94.70
8914;DHT22;4492;48.736;9.092;2022-07-18T02:43:12;12.60;94.80
8914;DHT22;4492;48.736;9.092;2022-07-18T02:45:38;12.50;95.10
8914;DHT22;4492;48.736;9.092;2022-07-18T02:48:04;12.50;95.40
8914;DHT22;4492;48.736;9.092;2022-07-18T02:50:29;12.40;95.50
8914;DHT22;4492;48.736;9.092;2022-07-18T02:52:55;12.50;95.60
8914;DHT22;4492;48.736;9.092;2022-07-18T02:55:22;12.50;95.70
8914;DHT22;4492;48.736;9.092;2022-07-18T02:57:48;12.40;95.80
8914;DHT22;4492;48.736;9.092;2022-07-18T03:00:15;12.40;95.80
8914;DHT22;4492;48.736;9.092;2022-07-18T03:02:42;12.40;95.90
8914;DHT22;4492;48.736;9.092;2022-07-18T03:05:08;12.30;96.10
8914;DHT22;4492;48.736;9.092;2022-07-18T03:07:33;12.30;96.20
8914;DHT22;4492;48.736;9.092;2022-07-18T03:09:59;12.20;96.40
8914;DHT22;4492;48.736;9.092;2022-07-18T03:12:25;12.20;96.60
8914;DHT22;4492;48.736;9.092;2022-07-18T03:14:51;12.30;96.80
8914;DHT22;4492;48.736;9.092;2022-07-18T03:17:17;12.30;96.50
8914;DHT22;4492;48.736;9.092;2022-07-18T03:19:42;12.30;96.20
8914;DHT22;4492;48.736;9.092;2022-07-18T03:22:08;12.30;95.90
8914;DHT22;4492;48.736;9.092;2022-07-18T03:24:34;12.30;95.30
8914;DHT22;4492;48.736;9.092;2022-07-18T03:26:59;12.30;94.90
8914;DHT22;4492;48.736;9.092;2022-07-18T03:29:25;12.30;94.90
8914;DHT22;4492;48.736;9.092;2022-07-18T03:31:51;12.30;94.60
8914;DHT22;4492;48.736;9.092;2022-07-18T03:34:16;12.40;94.30
8914;DHT22;4492;48.736;9.092;2022-07-18T03:36:42;12.40;94.30
8914;DHT22;4492;48.736;9.092;2022-07-18T03:39:08;12.40;94.10
8914;DHT22;4492;48.736;9.092;2022-07-18T03:41:35;12.50;94.00
8914;DHT22;4492;48.736;9.092;2022-07-18T03:44:01;12.50;94.00
8914;DHT22;4492;48.736;9.092;2022-07-18T03:46:26;12.50;94.20
8914;DHT22;4492;48.736;9.092;2022-07-18T03:48:52;12.40;94.20
8914;DHT22;4492;48.736;9.092;2022-07-18T03:51:18;12.40;94.00
8914;DHT22;4492;48.736;9.092;2022-07-18T03:53:43;12.40;94.00
8914;DHT22;4492;48.736;9.092;2022-07-18T03:56:09;12.40;94.00
8914;DHT22;4492;48.736;9.092;2022-07-18T03:58:34;12.40;93.80
8914;DHT22;4492;48.736;9.092;2022-07-18T04:01:00;12.50;93.80
8914;DHT22;4492;48.736;9.092;2022-07-18T04:03:26;12.50;93.70
8914;DHT22;4492;48.736;9.092;2022-07-18T04:05:51;12.50;93.70
8914;DHT22;4492;48.736;9.092;2022-07-18T04:08:17;12.60;93.80
8914;DHT22;4492;48.736;9.092;2022-07-18T04:10:43;12.60;94.20
8914;DHT22;4492;48.736;9.092;2022-07-18T04:13:09;12.60;94.30
8914;DHT22;4492;48.736;9.092;2022-07-18T04:15:36;12.60;94.40
8914;DHT22;4492;48.736;9.092;2022-07-18T04:18:03;12.60;94.60
8914;DHT22;4492;48.736;9.092;2022-07-18T04:20:29;12.70;94.70
8914;DHT22;4492;48.736;9.092;2022-07-18T04:23:00;12.70;94.80
8914;DHT22;4492;48.736;9.092;2022-07-18T04:25:28;12.80;94.80
8914;DHT22;4492;48.736;9.092;2022-07-18T04:27:55;12.80;95.00
8914;DHT22;4492;48.736;9.092;2022-07-18T04:30:23;12.90;95.10
8914;DHT22;4492;48.736;9.092;2022-07-18T04:32:49;13.00;95.20
8914;DHT22;4492;48.736;9.092;2022-07-18T04:35:15;13.00;95.30
8914;DHT22;4492;48.736;9.092;2022-07-18T04:37:41;13.00;95.40
8914;DHT22;4492;48.736;9.092;2022-07-18T04:40:08;13.10;95.50
8914;DHT22;4492;48.736;9.092;2022-07-18T04:42:34;13.20;95.70
8914;DHT22;4492;48.736;9.092;2022-07-18T04:44:59;13.20;95.90
8914;DHT22;4492;48.736;9.092;2022-07-18T04:47:26;13.30;95.90
8914;DHT22;4492;48.736;9.092;2022-07-18T04:49:52;13.40;95.80
8914;DHT22;4492;48.736;9.092;2022-07-18T04:52:17;13.50;95.60
8914;DHT22;4492;48.736;9.092;2022-07-18T04:54:43;13.70;95.50
8914;DHT22;4492;48.736;9.092;2022-07-18T04:57:08;13.80;95.50
8914;DHT22;4492;48.736;9.092;2022-07-18T04:59:37;13.90;95.60
8914;DHT22;4492;48.736;9.092;2022-07-18T05:02:02;14.00;95.50
8914;DHT22;4492;48.736;9.092;2022-07-18T05:04:28;14.10;95.40
8914;DHT22;4492;48.736;9.092;2022-07-18T05:06:54;14.20;95.30
8914;DHT22;4492;48.736;9.092;2022-07-18T05:09:19;14.30;95.50
8914;DHT22;4492;48.736;9.092;2022-07-18T05:11:45;14.40;95.60
8914;DHT22;4492;48.736;9.092;2022-07-18T05:14:10;14.40;95.60
8914;DHT22;4492;48.736;9.092;2022-07-18T05:16:36;14.60;95.40
8914;DHT22;4492;48.736;9.092;2022-07-18T05:19:02;14.70;94.90
8914;DHT22;4492;48.736;9.092;2022-07-18T05:21:27;14.90;94.20
8914;DHT22;4492;48.736;9.092;2022-07-18T05:23:53;15.10;93.40
8914;DHT22;4492;48.736;9.092;2022-07-18T05:26:18;15.30;93.10
8914;DHT22;4492;48.736;9.092;2022-07-18T05:28:44;15.50;92.80
8914;DHT22;4492;48.736;9.092;2022-07-18T05:31:10;15.60;92.50
8914;DHT22;4492;48.736;9.092;2022-07-18T05:33:36;15.80;92.10
8914;DHT22;4492;48.736;9.092;2022-07-18T05:36:02;15.90;91.70
8914;DHT22;4492;48.736;9.092;2022-07-18T05:38:27;16.10;91.50
8914;DHT22;4492;48.736;9.092;2022-07-18T05:40:53;16.30;91.20
8914;DHT22;4492;48.736;9.092;2022-07-18T05:43:18;16.50;91.00
8914;DHT22;4492;48.736;9.092;2022-07-18T05:45:44;16.70;90.80
8914;DHT22;4492;48.736;9.092;2022-07-18T05:48:09;16.80;90.60
8914;DHT22;4492;48.736;9.092;2022-07-18T05:50:35;17.00;90.00
8914;DHT22;4492;48.736;9.092;2022-07-18T05:53:00;17.20;89.80
8914;DHT22;4492;48.736;9.092;2022-07-18T05:55:26;17.40;89.60
8914;DHT22;4492;48.736;9.092;2022-07-18T05:57:51;17.60;89.30
8914;DHT22;4492;48.736;9.092;2022-07-18T06:00:18;17.70;88.40
8914;DHT22;4492;48.736;9.092;2022-07-18T06:02:46;17.90;87.30
8914;DHT22;4492;48.736;9.092;2022-07-18T06:05:12;18.10;86.50
8914;DHT22;4492;48.736;9.092;2022-07-18T06:07:37;18.30;85.80
8914;DHT22;4492;48.736;9.092;2022-07-18T06:10:03;18.50;85.40
8914;DHT22;4492;48.736;9.092;2022-07-18T06:12:30;18.70;84.50
8914;DHT22;4492;48.736;9.092;2022-07-18T06:14:56;18.90;84.40
8914;DHT22;4492;48.736;9.092;2022-07-18T06:17:22;19.00;83.50
8914;DHT22;4492;48.736;9.092;2022-07-18T06:19:48;19.30;84.00
8914;DHT22;4492;48.736;9.092;2022-07-18T06:22:13;19.50;82.10
8914;DHT22;4492;48.736;9.092;2022-07-18T06:24:39;19.70;81.80
8914;DHT22;4492;48.736;9.092;2022-07-18T06:27:04;19.80;80.80
8914;DHT22;4492;48.736;9.092;2022-07-18T06:29:30;20.00;80.00
8914;DHT22;4492;48.736;9.092;2022-07-18T06:31:56;20.20;79.50
8914;DHT22;4492;48.736;9.092;2022-07-18T06:34:22;20.40;77.90
8914;DHT22;4492;48.736;9.092;2022-07-18T06:36:47;20.60;75.80
8914;DHT22;4492;48.736;9.092;2022-07-18T06:39:13;20.80;75.70
8914;DHT22;4492;48.736;9.092;2022-07-18T06:41:42;21.00;72.50
8914;DHT22;4492;48.736;9.092;2022-07-18T06:44:07;21.20;72.70
8914;DHT22;4492;48.736;9.092;2022-07-18T06:46:33;21.30;71.90
8914;DHT22;4492;48.736;9.092;2022-07-18T06:48:59;21.50;70.60
8914;DHT22;4492;48.736;9.092;2022-07-18T06:51:24;21.70;69.60
8914;DHT22;4492;48.736;9.092;2022-07-18T06:53:51;21.80;69.10
8914;DHT22;4492;48.736;9.092;2022-07-18T06:56:17;22.00;66.60
8914;DHT22;4492;48.736;9.092;2022-07-18T06:58:43;22.20;65.10
8914;DHT22;4492;48.736;9.092;2022-07-18T07:01:17;22.30;64.90
8914;DHT22;4492;48.736;9.092;2022-07-18T07:03:43;22.30;63.70
8914;DHT22;4492;48.736;9.092;2022-07-18T07:06:09;22.40;64.30
8914;DHT22;4492;48.736;9.092;2022-07-18T07:08:35;22.60;64.80
8914;DHT22;4492;48.736;9.092;2022-07-18T07:11:01;22.80;64.50
8914;DHT22;4492;48.736;9.092;2022-07-18T07:13:27;23.00;63.30
8914;DHT22;4492;48.736;9.092;2022-07-18T07:15:53;23.10;61.60
8914;DHT22;4492;48.736;9.092;2022-07-18T07:18:19;23.10;61.10
8914;DHT22;4492;48.736;9.092;2022-07-18T07:20:45;23.20;61.50
8914;DHT22;4492;48.736;9.092;2022-07-18T07:23:12;23.40;60.00
8914;DHT22;4492;48.736;9.092;2022-07-18T07:25:38;23.50;60.40
8914;DHT22;4492;48.736;9.092;2022-07-18T07:28:04;23.60;58.90
8914;DHT22;4492;48.736;9.092;2022-07-18T07:30:30;23.80;57.40
8914;DHT22;4492;48.736;9.092;2022-07-18T07:32:56;23.80;55.90
8914;DHT22;4492;48.736;9.092;2022-07-18T07:35:22;23.90;57.20
8914;DHT22;4492;48.736;9.092;2022-07-18T07:37:50;24.00;57.60
8914;DHT22;4492;48.736;9.092;2022-07-18T07:40:17;24.10;57.10
8914;DHT22;4492;48.736;9.092;2022-07-18T07:42:43;24.30;58.00
8914;DHT22;4492;48.736;9.092;2022-07-18T07:45:10;24.40;57.90
8914;DHT22;4492;48.736;9.092;2022-07-18T07:47:37;24.50;57.30
8914;DHT22;4492;48.736;9.092;2022-07-18T07:50:07;24.40;56.80
8914;DHT22;4492;48.736;9.092;2022-07-18T07:52:33;24.40;55.80
8914;DHT22;4492;48.736;9.092;2022-07-18T07:54:59;24.60;55.90
8914;DHT22;4492;48.736;9.092;2022-07-18T07:57:24;24.70;54.80
8914;DHT22;4492;48.736;9.092;2022-07-18T07:59:51;24.90;55.90
8914;DHT22;4492;48.736;9.092;2022-07-18T08:02:18;25.00;55.80
8914;DHT22;4492;48.736;9.092;2022-07-18T08:04:44;25.20;54.90
8914;DHT22;4492;48.736;9.092;2022-07-18T08:07:10;25.40;55.10
8914;DHT22;4492;48.736;9.092;2022-07-18T08:09:36;25.50;54.50
8914;DHT22;4492;48.736;9.092;2022-07-18T08:12:02;25.60;53.20
8914;DHT22;4492;48.736;9.092;2022-07-18T08:14:28;25.70;53.80
8914;DHT22;4492;48.736;9.092;2022-07-18T08:16:53;25.90;54.10
8914;DHT22;4492;48.736;9.092;2022-07-18T08:19:19;25.90;53.60
8914;DHT22;4492;48.736;9.092;2022-07-18T08:21:44;26.00;53.90
8914;DHT22;4492;48.736;9.092;2022-07-18T08:24:10;26.10;53.70
8914;DHT22;4492;48.736;9.092;2022-07-18T08:26:35;26.20;52.10
8914;DHT22;4492;48.736;9.092;2022-07-18T08:29:04;26.30;52.70
8914;DHT22;4492;48.736;9.092;2022-07-18T08:31:30;26.40;52.40
8914;DHT22;4492;48.736;9.092;2022-07-18T08:33:55;26.40;53.50
8914;DHT22;4492;48.736;9.092;2022-07-18T08:36:21;26.40;52.10
8914;DHT22;4492;48.736;9.092;2022-07-18T08:38:46;26.50;53.70
8914;DHT22;4492;48.736;9.092;2022-07-18T08:41:12;26.60;52.60
8914;DHT22;4492;48.736;9.092;2022-07-18T08:43:39;26.60;52.30
8914;DHT22;4492;48.736;9.092;2022-07-18T08:46:05;26.70;52.40
8914;DHT22;4492;48.736;9.092;2022-07-18T08:48:31;26.70;51.20
8914;DHT22;4492;48.736;9.092;2022-07-18T08:50:59;26.90;50.70
8914;DHT22;4492;48.736;9.092;2022-07-18T08:53:25;27.10;48.50
8914;DHT22;4492;48.736;9.092;2022-07-18T08:55:50;27.00;47.90
8914;DHT22;4492;48.736;9.092;2022-07-18T08:58:16;27.00;47.50
8914;DHT22;4492;48.736;9.092;2022-07-18T09:00:43;27.10;47.40
8914;DHT22;4492;48.736;9.092;2022-07-18T09:03:09;27.20;46.70
8914;DHT22;4492;48.736;9.092;2022-07-18T09:05:35;27.40;46.50
8914;DHT22;4492;48.736;9.092;2022-07-18T09:08:15;27.50;46.00
8914;DHT22;4492;48.736;9.092;2022-07-18T09:13:17;27.70;47.60
8914;DHT22;4492;48.736;9.092;2022-07-18T09:16:04;27.80;46.40
8914;DHT22;4492;48.736;9.092;2022-07-18T09:21:01;28.00;45.10
8914;DHT22;4492;48.736;9.092;2022-07-18T09:23:33;28.10;44.90
8914;DHT22;4492;48.736;9.092;2022-07-18T09:26:01;28.10;45.00
8914;DHT22;4492;48.736;9.092;2022-07-18T09:28:27;28.10;44.90
8914;DHT22;4492;48.736;9.092;2022-07-18T09:30:53;28.20;44.70
8914;DHT22;4492;48.736;9.092;2022-07-18T09:33:19;28.30;45.10
8914;DHT22;4492;48.736;9.092;2022-07-18T09:35:51;28.40;44.90
8914;DHT22;4492;48.736;9.092;2022-07-18T09:38:22;28.40;44.60
8914;DHT22;4492;48.736;9.092;2022-07-18T09:40:54;28.40;43.90
8914;DHT22;4492;48.736;9.092;2022-07-18T09:43:22;28.40;43.50
8914;DHT22;4492;48.736;9.092;2022-07-18T09:45:53;28.40;44.30
8914;DHT22;4492;48.736;9.092;2022-07-18T09:48:21;28.50;43.90
8914;DHT22;4492;48.736;9.092;2022-07-18T09:50:58;28.60;43.50
8914;DHT22;4492;48.736;9.092;2022-07-18T09:53:27;28.60;44.20
8914;DHT22;4492;48.736;9.092;2022-07-18T09:55:55;28.50;42.40
8914;DHT22;4492;48.736;9.092;2022-07-18T09:58:26;28.40;43.50
8914;DHT22;4492;48.736;9.092;2022-07-18T10:00:53;28.40;42.00
8914;DHT22;4492;48.736;9.092;2022-07-18T10:03:20;28.60;42.20
8914;DHT22;4492;48.736;9.092;2022-07-18T10:05:47;28.50;43.50
8914;DHT22;4492;48.736;9.092;2022-07-18T10:08:16;28.50;41.80
8914;DHT22;4492;48.736;9.092;2022-07-18T10:10:43;28.70;42.50
8914;DHT22;4492;48.736;9.092;2022-07-18T10:13:10;28.80;43.20
8914;DHT22;4492;48.736;9.092;2022-07-18T10:15:38;29.00;42.40
8914;DHT22;4492;48.736;9.092;2022-07-18T10:18:06;29.00;42.30
8914;DHT22;4492;48.736;9.092;2022-07-18T10:23:24;28.80;41.80
8914;DHT22;4492;48.736;9.092;2022-07-18T10:31:22;28.80;40.30
8914;DHT22;4492;48.736;9.092;2022-07-18T10:33:49;28.80;40.70
8914;DHT22;4492;48.736;9.092;2022-07-18T10:36:15;28.90;39.70
8914;DHT22;4492;48.736;9.092;2022-07-18T10:39:04;28.90;40.30
8914;DHT22;4492;48.736;9.092;2022-07-18T10:41:31;28.90;40.20
8914;DHT22;4492;48.736;9.092;2022-07-18T10:43:57;29.00;40.20
8914;DHT22;4492;48.736;9.092;2022-07-18T10:46:23;29.10;39.30
8914;DHT22;4492;48.736;9.092;2022-07-18T10:48:53;29.30;39.60
8914;DHT22;4492;48.736;9.092;2022-07-18T10:51:20;29.40;39.50
8914;DHT22;4492;48.736;9.092;2022-07-18T10:59:22;29.60;38.70
8914;DHT22;4492;48.736;9.092;2022-07-18T11:01:53;29.60;37.30
8914;DHT22;4492;48.736;9.092;2022-07-18T11:04:26;29.40;37.60
8914;DHT22;4492;48.736;9.092;2022-07-18T11:09:42;29.30;34.60
8914;DHT22;4492;48.736;9.092;2022-07-18T11:12:26;29.20;35.00
8914;DHT22;4492;48.736;9.092;2022-07-18T11:15:10;29.30;34.90
8914;DHT22;4492;48.736;9.092;2022-07-18T11:20:25;29.60;35.70
8914;DHT22;4492;48.736;9.092;2022-07-18T11:22:51;29.60;35.30
8914;DHT22;4492;48.736;9.092;2022-07-18T11:25:17;29.60;36.30
8914;DHT22;4492;48.736;9.092;2022-07-18T11:27:44;29.70;36.60
8914;DHT22;4492;48.736;9.092;2022-07-18T11:30:15;29.70;36.10
8914;DHT22;4492;48.736;9.092;2022-07-18T11:32:41;29.80;36.80
8914;DHT22;4492;48.736;9.092;2022-07-18T11:35:07;30.00;36.20
8914;DHT22;4492;48.736;9.092;2022-07-18T11:37:36;30.10;35.80
8914;DHT22;4492;48.736;9.092;2022-07-18T11:40:08;30.10;35.70
8914;DHT22;4492;48.736;9.092;2022-07-18T11:42:38;30.30;35.10
8914;DHT22;4492;48.736;9.092;2022-07-18T11:45:09;30.20;34.70
8914;DHT22;4492;48.736;9.092;2022-07-18T11:47:54;30.20;35.80
8914;DHT22;4492;48.736;9.092;2022-07-18T11:50:34;30.30;35.80
8914;DHT22;4492;48.736;9.092;2022-07-18T11:53:00;30.20;35.00
8914;DHT22;4492;48.736;9.092;2022-07-18T11:55:37;30.20;35.10
8914;DHT22;4492;48.736;9.092;2022-07-18T11:58:12;30.20;35.40
8914;DHT22;4492;48.736;9.092;2022-07-18T12:00:42;30.30;35.70
8914;DHT22;4492;48.736;9.092;2022-07-18T12:03:11;30.30;36.00
8914;DHT22;4492;48.736;9.092;2022-07-18T12:05:40;30.40;35.20
8914;DHT22;4492;48.736;9.092;2022-07-18T12:08:37;30.40;34.70
8914;DHT22;4492;48.736;9.092;2022-07-18T12:11:12;30.40;35.60
8914;DHT22;4492;48.736;9.092;2022-07-18T12:13:46;30.40;34.80
8914;DHT22;4492;48.736;9.092;2022-07-18T12:16:40;30.50;34.50
8914;DHT22;4492;48.736;9.092;2022-07-18T12:19:14;30.60;34.90
8914;DHT22;4492;48.736;9.092;2022-07-18T12:21:44;30.80;33.90
8914;DHT22;4492;48.736;9.092;2022-07-18T12:24:31;30.80;34.20
8914;DHT22;4492;48.736;9.092;2022-07-18T12:27:18;30.80;33.60
8914;DHT22;4492;48.736;9.092;2022-07-18T12:32:51;30.90;32.70
8914;DHT22;4492;48.736;9.092;2022-07-18T12:35:39;31.00;33.00
8914;DHT22;4492;48.736;9.092;2022-07-18T12:38:16;31.10;32.90
8914;DHT22;4492;48.736;9.092;2022-07-18T12:40:51;31.20;32.30
8914;DHT22;4492;48.736;9.092;2022-07-18T12:43:27;31.10;33.00
8914;DHT22;4492;48.736;9.092;2022-07-18T12:45:53;31.30;32.30
8914;DHT22;4492;48.736;9.092;2022-07-18T12:48:19;31.20;32.10
8914;DHT22;4492;48.736;9.092;2022-07-18T12:50:45;31.30;33.00
8914;DHT22;4492;48.736;9.092;2022-07-18T12:53:12;31.20;32.60
8914;DHT22;4492;48.736;9.092;2022-07-18T12:55:38;31.20;33.10
8914;DHT22;4492;48.736;9.092;2022-07-18T12:58:05;31.20;33.90
8914;DHT22;4492;48.736;9.092;2022-07-18T13:00:31;31.20;33.60
8914;DHT22;4492;48.736;9.092;2022-07-18T13:02:58;31.40;33.30
8914;DHT22;4492;48.736;9.092;2022-07-18T13:05:24;31.70;33.30
8914;DHT22;4492;48.736;9.092;2022-07-18T13:07:50;31.80;32.20
8914;DHT22;4492;48.736;9.092;2022-07-18T13:10:16;31.80;32.60
8914;DHT22;4492;48.736;9.092;2022-07-18T13:12:42;31.80;32.20
8914;DHT22;4492;48.736;9.092;2022-07-18T13:15:08;31.80;32.00
8914;DHT22;4492;48.736;9.092;2022-07-18T13:17:34;32.00;33.00
8914;DHT22;4492;48.736;9.092;2022-07-18T13:20:00;32.20;33.00
8914;DHT22;4492;48.736;9.092;2022-07-18T13:22:26;32.10;32.40
8914;DHT22;4492;48.736;9.092;2022-07-18T13:24:52;32.10;32.40
8914;DHT22;4492;48.736;9.092;2022-07-18T13:27:17;32.20;31.60
8914;DHT22;4492;48.736;9.092;2022-07-18T13:29:46;32.20;31.50
8914;DHT22;4492;48.736;9.092;2022-07-18T13:32:12;32.20;32.10
8914;DHT22;4492;48.736;9.092;2022-07-18T13:34:38;32.10;32.10
8914;DHT22;4492;48.736;9.092;2022-07-18T13:37:03;32.20;31.90
8914;DHT22;4492;48.736;9.092;2022-07-18T13:39:29;32.20;31.50
8914;DHT22;4492;48.736;9.092;2022-07-18T13:41:54;32.40;31.30
8914;DHT22;4492;48.736;9.092;2022-07-18T13:44:20;32.40;31.80
8914;DHT22;4492;48.736;9.092;2022-07-18T13:46:46;32.50;32.10
8914;DHT22;4492;48.736;9.092;2022-07-18T13:49:12;32.60;31.30
8914;DHT22;4492;48.736;9.092;2022-07-18T13:51:38;32.50;30.40
8914;DHT22;4492;48.736;9.092;2022-07-18T13:54:05;32.50;30.90
8914;DHT22;4492;48.736;9.092;2022-07-18T13:56:31;32.50;31.40
8914;DHT22;4492;48.736;9.092;2022-07-18T13:58:57;32.40;31.50
8914;DHT22;4492;48.736;9.092;2022-07-18T14:01:23;32.40;30.90
8914;DHT22;4492;48.736;9.092;2022-07-18T14:03:48;32.50;30.70
8914;DHT22;4492;48.736;9.092;2022-07-18T14:06:14;32.50;30.80
8914;DHT22;4492;48.736;9.092;2022-07-18T14:08:40;32.50;31.30
8914;DHT22;4492;48.736;9.092;2022-07-18T14:11:06;32.50;31.40
8914;DHT22;4492;48.736;9.092;2022-07-18T14:13:31;32.40;30.80
8914;DHT22;4492;48.736;9.092;2022-07-18T14:15:57;32.20;31.40
8914;DHT22;4492;48.736;9.092;2022-07-18T14:18:23;32.20;32.40
8914;DHT22;4492;48.736;9.092;2022-07-18T14:20:48;32.40;31.70
8914;DHT22;4492;48.736;9.092;2022-07-18T14:23:14;32.60;31.70
8914;DHT22;4492;48.736;9.092;2022-07-18T14:25:39;32.90;32.00
8914;DHT22;4492;48.736;9.092;2022-07-18T14:28:05;33.00;31.20
8914;DHT22;4492;48.736;9.092;2022-07-18T14:30:31;33.20;31.30
8914;DHT22;4492;48.736;9.092;2022-07-18T14:32:57;33.10;30.40
8914;DHT22;4492;48.736;9.092;2022-07-18T14:35:22;33.10;30.60
8914;DHT22;4492;48.736;9.092;2022-07-18T14:37:48;33.10;30.40
8914;DHT22;4492;48.736;9.092;2022-07-18T14:40:13;33.20;30.10
8914;DHT22;4492;48.736;9.092;2022-07-18T14:42:39;33.10;30.40
8914;DHT22;4492;48.736;9.092;2022-07-18T14:45:05;33.10;31.00
8914;DHT22;4492;48.736;9.092;2022-07-18T14:47:31;33.00;31.70
8914;DHT22;4492;48.736;9.092;2022-07-18T14:49:58;33.10;31.20
8914;DHT22;4492;48.736;9.092;2022-07-18T14:52:24;33.10;31.60
8914;DHT22;4492;48.736;9.092;2022-07-18T14:54:49;33.40;31.60
8914;DHT22;4492;48.736;9.092;2022-07-18T14:57:15;33.50;31.30
8914;DHT22;4492;48.736;9.092;2022-07-18T14:59:41;33.50;31.50
8914;DHT22;4492;48.736;9.092;2022-07-18T15:02:07;33.70;30.90
8914;DHT22;4492;48.736;9.092;2022-07-18T15:04:34;33.60;30.60
8914;DHT22;4492;48.736;9.092;2022-07-18T15:06:59;33.80;30.90
8914;DHT22;4492;48.736;9.092;2022-07-18T15:09:25;34.00;31.40
8914;DHT22;4492;48.736;9.092;2022-07-18T15:11:50;34.10;30.70
8914;DHT22;4492;48.736;9.092;2022-07-18T15:14:16;34.30;30.40
8914;DHT22;4492;48.736;9.092;2022-07-18T15:16:42;34.40;30.00
8914;DHT22;4492;48.736;9.092;2022-07-18T15:19:07;34.40;29.80
8914;DHT22;4492;48.736;9.092;2022-07-18T15:21:33;34.50;29.50
8914;DHT22;4492;48.736;9.092;2022-07-18T15:23:59;34.70;29.60
8914;DHT22;4492;48.736;9.092;2022-07-18T15:26:25;34.80;28.90
8914;DHT22;4492;48.736;9.092;2022-07-18T15:28:50;34.90;28.70
8914;DHT22;4492;48.736;9.092;2022-07-18T15:31:16;35.00;29.20
8914;DHT22;4492;48.736;9.092;2022-07-18T15:33:41;35.00;29.40
8914;DHT22;4492;48.736;9.092;2022-07-18T15:36:07;35.10;28.80
8914;DHT22;4492;48.736;9.092;2022-07-18T15:38:33;35.00;29.10
8914;DHT22;4492;48.736;9.092;2022-07-18T15:40:58;35.10;29.20
8914;DHT22;4492;48.736;9.092;2022-07-18T15:43:24;35.40;29.70
8914;DHT22;4492;48.736;9.092;2022-07-18T15:45:49;35.50;29.00
8914;DHT22;4492;48.736;9.092;2022-07-18T15:48:15;35.50;28.80
8914;DHT22;4492;48.736;9.092;2022-07-18T15:50:41;35.60;29.40
8914;DHT22;4492;48.736;9.092;2022-07-18T15:53:06;36.10;28.70
8914;DHT22;4492;48.736;9.092;2022-07-18T15:55:32;36.40;28.60
8914;DHT22;4492;48.736;9.092;2022-07-18T15:57:58;36.30;28.40
8914;DHT22;4492;48.736;9.092;2022-07-18T16:00:24;36.00;28.80
8914;DHT22;4492;48.736;9.092;2022-07-18T16:02:50;35.70;29.20
8914;DHT22;4492;48.736;9.092;2022-07-18T16:05:15;35.80;28.40
8914;DHT22;4492;48.736;9.092;2022-07-18T16:07:41;35.90;28.50
8914;DHT22;4492;48.736;9.092;2022-07-18T16:10:07;36.20;28.50
8914;DHT22;4492;48.736;9.092;2022-07-18T16:12:33;36.30;28.20
8914;DHT22;4492;48.736;9.092;2022-07-18T16:14:58;36.40;28.20
8914;DHT22;4492;48.736;9.092;2022-07-18T16:17:24;36.40;28.00
8914;DHT22;4492;48.736;9.092;2022-07-18T16:19:49;36.60;27.80
8914;DHT22;4492;48.736;9.092;2022-07-18T16:22:15;36.90;27.40
8914;DHT22;4492;48.736;9.092;2022-07-18T16:24:44;36.80;28.30
8914;DHT22;4492;48.736;9.092;2022-07-18T16:27:13;36.70;28.20
8914;DHT22;4492;48.736;9.092;2022-07-18T16:29:40;36.70;28.30